Time;durP1;ratioP1;P1;durP2;ratioP2;P2;SDS_P1;SDS_P2;PMS_P1;PMS_P2;Temp;Humidity;BMP_temperature;BMP_pressure;BME280_temperature;BME280_humidity;BME280_pressure;Samples;Min_cycle;Max_cycle;Signal;HPM_P1;HPM_P2
2024/01/08 00:01:12;;;;;;;12.87;12.17;;;-1.30;1.00;;;;;;5030629;28;20190;-38
2024/01/08 00:03:41;;;;;;;12.82;11.90;;;-1.30;1.00;;;;;;5025557;28;20186;-38
2024/01/08 00:06:06;;;;;;;13.02;12.23;;;-1.40;1.00;;;;;;5021588;28;20668;-37
2024/01/08 00:08:32;;;;;;;13.00;12.20;;;-1.40;1.00;;;;;;5027375;28;20186;-36
2024/01/08 00:10:58;;;;;;;13.57;12.67;;;-1.40;1.00;;;;;;5032700;28;20532;-37
2024/01/08 00:13:23;;;;;;;13.30;12.47;;;-1.40;1.00;;;;;;5027308;28;20827;-37
2024/01/08 00:15:49;;;;;;;13.67;12.83;;;-1.50;1.00;;;;;;5020494;28;20260;-37
2024/01/08 00:18:15;;;;;;;11.63;10.83;;;-1.50;1.00;;;;;;5024060;28;20184;-37
2024/01/08 00:20:41;;;;;;;12.40;11.60;;;-1.50;1.00;;;;;;5031748;28;20536;-39
2024/01/08 00:23:07;;;;;;;13.63;12.73;;;-1.60;1.00;;;;;;5010072;28;20182;-37
2024/01/08 00:25:32;;;;;;;12.90;12.20;;;-1.60;1.00;;;;;;5039489;28;20178;-38
2024/01/08 00:27:58;;;;;;;14.03;13.10;;;-1.70;1.00;;;;;;5027554;28;20590;-37
2024/01/08 00:30:24;;;;;;;13.47;12.57;;;-1.60;1.00;;;;;;5024619;28;20183;-37
2024/01/08 00:32:50;;;;;;;13.37;12.53;;;-1.60;1.00;;;;;;5027130;28;20281;-38
2024/01/08 00:35:15;;;;;;;14.53;13.47;;;-1.50;1.00;;;;;;5029481;28;20214;-37
2024/01/08 00:37:41;;;;;;;13.33;12.53;;;-1.60;1.00;;;;;;5027258;28;21126;-37
2024/01/08 00:40:10;;;;;;;13.60;12.70;;;-1.50;1.00;;;;;;5024796;28;20193;-37
2024/01/08 00:42:36;;;;;;;13.60;12.60;;;-1.50;1.00;;;;;;5028513;28;20192;-38
2024/01/08 00:45:03;;;;;;;13.35;12.45;;;-1.60;1.00;;;;;;5024532;28;20836;-37
2024/01/08 00:47:28;;;;;;;14.00;13.10;;;-1.50;1.00;;;;;;5033726;28;20186;-38
2024/01/08 00:49:54;;;;;;;14.40;13.30;;;-1.50;1.00;;;;;;5030172;28;20181;-54
2024/01/08 00:52:20;;;;;;;14.03;13.23;;;-1.40;1.00;;;;;;5043680;28;20292;-55
2024/01/08 00:54:45;;;;;;;13.13;12.33;;;-1.40;1.00;;;;;;5034520;28;20174;-56
2024/01/08 00:57:11;;;;;;;13.00;12.30;;;-1.40;1.00;;;;;;5042669;28;20294;-54
2024/01/08 00:59:37;;;;;;;13.57;12.60;;;-1.40;1.00;;;;;;5031886;28;20183;-54
2024/01/08 01:02:03;;;;;;;13.93;13.00;;;-1.50;1.00;;;;;;5033637;28;20423;-56
2024/01/08 01:04:29;;;;;;;13.80;12.90;;;-1.50;1.00;;;;;;5033577;28;21061;-56
2024/01/08 01:06:54;;;;;;;13.10;12.27;;;-1.50;1.00;;;;;;5032548;28;20189;-54
2024/01/08 01:09:20;;;;;;;13.87;13.00;;;-1.50;1.00;;;;;;5015885;28;20186;-56
2024/01/08 01:11:46;;;;;;;13.10;12.30;;;-1.60;1.00;;;;;;5029461;28;20640;-56
2024/01/08 01:14:11;;;;;;;13.70;12.80;;;-1.60;1.00;;;;;;5031382;28;20589;-37
2024/01/08 01:16:37;;;;;;;14.00;13.10;;;-1.50;1.00;;;;;;5017117;28;20220;-36
2024/01/08 01:19:02;;;;;;;13.07;12.30;;;-1.50;1.00;;;;;;5037575;28;20221;-38
2024/01/08 01:21:28;;;;;;;13.87;13.00;;;-1.50;1.00;;;;;;5025704;28;20267;-36
2024/01/08 01:23:54;;;;;;;13.50;12.70;;;-1.50;1.00;;;;;;5038975;28;20192;-38
2024/01/08 01:26:20;;;;;;;13.67;12.80;;;-1.50;1.00;;;;;;5006460;28;20264;-55
2024/01/08 01:28:46;;;;;;;13.60;12.80;;;-1.50;1.00;;;;;;5032598;28;20183;-55
2024/01/08 01:31:12;;;;;;;13.97;13.13;;;-1.60;1.00;;;;;;5034529;28;20640;-37
2024/01/08 01:33:39;;;;;;;14.82;13.40;;;-1.60;1.00;;;;;;5039605;28;20224;-37
2024/01/08 01:36:05;;;;;;;15.57;14.07;;;-1.50;1.00;;;;;;5036174;28;20240;-50
2024/01/08 01:38:31;;;;;;;14.13;12.93;;;-1.50;1.00;;;;;;5039100;28;20213;-57
2024/01/08 01:40:57;;;;;;;14.13;13.00;;;-1.40;1.00;;;;;;5031450;28;21335;-36
2024/01/08 01:43:31;;;;;;;13.77;12.70;;;-1.40;1.00;;;;;;5037045;28;20182;-36
2024/01/08 01:46:06;;;;;;;14.27;13.48;;;-1.50;1.00;;;;;;5031566;28;20544;-37
2024/01/08 01:48:32;;;;;;;14.00;13.10;;;-1.40;1.00;;;;;;5038783;28;20185;-36
2024/01/08 01:50:59;;;;;;;14.00;13.00;;;-1.40;1.00;;;;;;5034286;28;21285;-37
2024/01/08 01:53:24;;;;;;;14.95;13.75;;;-1.40;1.00;;;;;;5030632;28;21273;-37
2024/01/08 01:55:52;;;;;;;13.70;12.80;;;-1.40;1.00;;;;;;5035261;28;20209;-37
2024/01/08 01:58:18;;;;;;;14.18;13.10;;;-1.50;1.00;;;;;;5037100;28;21063;-37
2024/01/08 02:00:44;;;;;;;13.80;12.90;;;-1.50;1.00;;;;;;5033831;28;20188;-57
2024/01/08 02:03:10;;;;;;;13.98;13.05;;;-1.40;1.00;;;;;;5042153;28;20194;-57
2024/01/08 02:05:36;;;;;;;14.15;13.18;;;-1.40;1.00;;;;;;5033029;28;20183;-56
2024/01/08 02:08:03;;;;;;;15.80;14.60;;;-1.50;1.00;;;;;;5032973;28;20196;-50
2024/01/08 02:10:29;;;;;;;15.35;14.05;;;-1.50;1.00;;;;;;5034668;28;20210;-50
2024/01/08 02:12:55;;;;;;;16.35;14.80;;;-1.70;1.00;;;;;;5026099;28;20186;-56
2024/01/08 02:15:20;;;;;;;15.80;14.50;;;-1.70;1.00;;;;;;5032806;28;20702;-56
2024/01/08 02:17:46;;;;;;;15.93;14.67;;;-1.80;1.00;;;;;;5041990;28;20185;-55
2024/01/08 02:20:12;;;;;;;17.30;15.90;;;-1.90;1.00;;;;;;5012488;28;20228;-56
2024/01/08 02:22:41;;;;;;;15.90;14.50;;;-1.90;1.00;;;;;;5033846;28;20278;-36
2024/01/08 02:25:08;;;;;;;16.35;14.90;;;-2.00;1.00;;;;;;5033785;28;20312;-37
2024/01/08 02:27:34;;;;;;;15.98;14.57;;;-2.10;1.00;;;;;;5032941;28;20188;-37
2024/01/08 02:30:00;;;;;;;16.20;14.97;;;-2.20;1.00;;;;;;5033136;28;20191;-37
2024/01/08 02:32:25;;;;;;;16.63;15.17;;;-2.30;1.00;;;;;;5032715;28;20507;-36
2024/01/08 02:34:51;;;;;;;15.90;14.63;;;-2.30;1.00;;;;;;5037803;28;20201;-37
2024/01/08 02:37:17;;;;;;;16.07;14.97;;;-2.30;1.00;;;;;;5032446;28;20207;-36
2024/01/08 02:39:42;;;;;;;15.90;14.60;;;-2.30;1.00;;;;;;5026182;28;20233;-54
2024/01/08 02:42:08;;;;;;;16.30;15.00;;;-2.40;1.00;;;;;;5025493;28;20958;-56
2024/01/08 02:44:33;;;;;;;16.13;14.77;;;-2.50;1.00;;;;;;5021767;28;20205;-53
2024/01/08 02:47:00;;;;;;;15.97;14.67;;;-2.60;1.00;;;;;;5022696;28;20189;-54
2024/01/08 02:49:26;;;;;;;18.58;16.77;;;-2.60;1.00;;;;;;5024272;28;20189;-55
2024/01/08 02:51:52;;;;;;;16.35;14.95;;;-2.70;1.00;;;;;;5022847;28;20194;-52
2024/01/08 02:54:17;;;;;;;15.67;14.40;;;-2.70;1.00;;;;;;5031970;28;20276;-57
2024/01/08 02:56:43;;;;;;;15.67;14.47;;;-2.80;1.00;;;;;;5021624;28;20419;-56
2024/01/08 02:59:09;;;;;;;15.63;14.40;;;-2.80;1.00;;;;;;5036542;28;20267;-54
2024/01/08 03:01:36;;;;;;;16.37;15.03;;;-2.90;1.00;;;;;;5031121;28;20613;-54
2024/01/08 03:04:01;;;;;;;16.45;15.13;;;-2.90;1.00;;;;;;5022321;28;20692;-47
2024/01/08 03:06:27;;;;;;;15.87;14.50;;;-3.00;1.00;;;;;;5022284;28;20188;-56
2024/01/08 03:08:53;;;;;;;16.77;15.03;;;-3.00;1.00;;;;;;5022539;28;20188;-51
2024/01/08 03:11:18;;;;;;;16.07;14.77;;;-3.00;1.00;;;;;;5022310;28;20649;-56
2024/01/08 03:13:44;;;;;;;16.03;14.90;;;-3.10;1.00;;;;;;5028729;28;20184;-57
2024/01/08 03:16:10;;;;;;;16.97;15.23;;;-3.10;1.00;;;;;;5005112;28;20557;-56
2024/01/08 03:18:35;;;;;;;16.10;14.90;;;-3.20;1.00;;;;;;5035186;28;20231;-54
2024/01/08 03:21:01;;;;;;;16.70;15.40;;;-3.20;1.00;;;;;;5024790;28;20242;-56
2024/01/08 03:23:27;;;;;;;16.90;15.47;;;-3.30;1.00;;;;;;5034602;28;20215;-54
2024/01/08 03:25:53;;;;;;;16.65;15.15;;;-3.30;1.00;;;;;;5038297;28;20169;-52
2024/01/08 03:28:18;;;;;;;15.60;14.50;;;-3.30;1.00;;;;;;5027127;28;20200;-53
2024/01/08 03:30:44;;;;;;;16.10;14.47;;;-3.40;1.00;;;;;;5038332;28;20188;-56
2024/01/08 03:33:10;;;;;;;15.47;14.13;;;-3.50;1.00;;;;;;5032596;28;20191;-57
2024/01/08 03:35:35;;;;;;;17.00;15.40;;;-3.50;1.00;;;;;;5039574;28;20757;-57
2024/01/08 03:38:01;;;;;;;15.70;14.30;;;-3.60;1.00;;;;;;5033225;28;20192;-56
2024/01/08 03:40:27;;;;;;;16.77;15.33;;;-3.50;1.00;;;;;;5033080;28;20633;-50
2024/01/08 03:42:53;;;;;;;17.13;15.80;;;-3.60;1.00;;;;;;5029437;28;20179;-54
2024/01/08 03:45:18;;;;;;;17.13;15.73;;;-3.70;1.00;;;;;;5036134;28;20187;-55
2024/01/08 03:47:44;;;;;;;16.23;14.87;;;-3.70;1.00;;;;;;5022344;28;20543;-49
2024/01/08 03:50:10;;;;;;;16.17;14.60;;;-3.80;1.00;;;;;;5003726;28;20223;-55
2024/01/08 03:52:35;;;;;;;16.67;15.30;;;-3.80;1.00;;;;;;5021455;28;20637;-51
2024/01/08 03:55:01;;;;;;;16.63;15.17;;;-3.90;1.00;;;;;;5021715;28;20213;-56
2024/01/08 03:57:27;;;;;;;15.87;14.57;;;-3.90;1.00;;;;;;5012477;28;20190;-37
2024/01/08 03:59:52;;;;;;;15.57;14.25;;;-4.00;1.00;;;;;;5021679;28;20198;-37
2024/01/08 04:02:18;;;;;;;15.87;14.60;;;-4.00;1.00;;;;;;5036368;28;20182;-36
2024/01/08 04:04:44;;;;;;;17.63;13.80;;;-3.90;1.00;;;;;;5025599;28;21196;-36
2024/01/08 04:07:10;;;;;;;16.40;14.80;;;-4.00;1.00;;;;;;5023310;28;20175;-36
2024/01/08 04:09:36;;;;;;;16.45;15.05;;;-4.10;1.00;;;;;;5036290;28;20174;-35
2024/01/08 04:12:04;;;;;;;15.90;14.27;;;-4.10;1.00;;;;;;5027111;28;20182;-36
2024/01/08 04:14:30;;;;;;;14.07;13.07;;;-4.10;1.00;;;;;;5027317;28;20186;-36
2024/01/08 04:16:56;;;;;;;16.00;14.65;;;-4.10;1.00;;;;;;5035820;28;21177;-36
2024/01/08 04:19:21;;;;;;;16.37;14.90;;;-4.10;1.00;;;;;;5021810;28;20234;-56
2024/01/08 04:21:47;;;;;;;17.83;16.07;;;-4.20;1.00;;;;;;5023368;28;20201;-56
2024/01/08 04:24:14;;;;;;;16.97;15.30;;;-4.40;1.00;;;;;;5029755;28;20644;-53
2024/01/08 04:26:39;;;;;;;15.32;14.00;;;-4.30;1.00;;;;;;5032358;28;20192;-54
2024/01/08 04:29:05;;;;;;;17.07;14.90;;;-4.30;1.00;;;;;;5027338;28;20181;-56
2024/01/08 04:31:31;;;;;;;15.43;14.35;;;-4.30;1.00;;;;;;5031612;28;20197;-56
2024/01/08 04:33:57;;;;;;;15.73;14.13;;;-4.30;1.00;;;;;;5030206;28;20194;-56
2024/01/08 04:36:22;;;;;;;16.27;14.67;;;-4.30;1.00;;;;;;5037381;28;20298;-58
2024/01/08 04:38:48;;;;;;;14.77;13.37;;;-4.30;1.00;;;;;;5025662;28;21021;-47
2024/01/08 04:41:19;;;;;;;15.27;13.90;;;-4.30;1.00;;;;;;5030060;28;20181;-56
2024/01/08 04:43:44;;;;;;;16.50;14.75;;;-4.40;1.00;;;;;;5035615;28;20604;-47
2024/01/08 04:46:10;;;;;;;17.13;15.73;;;-4.50;1.00;;;;;;5039805;28;20185;-55
2024/01/08 04:48:36;;;;;;;16.03;14.57;;;-4.50;1.00;;;;;;5028633;28;20277;-46
2024/01/08 04:51:01;;;;;;;17.00;15.43;;;-4.50;1.00;;;;;;5032968;28;20237;-56
2024/01/08 04:53:27;;;;;;;16.63;15.07;;;-4.60;1.00;;;;;;5027267;28;20269;-55
2024/01/08 04:55:52;;;;;;;16.33;14.70;;;-4.70;1.00;;;;;;5039702;28;20202;-54
2024/01/08 04:58:18;;;;;;;16.97;14.27;;;-4.60;1.00;;;;;;5037658;28;20289;-55
2024/01/08 05:00:44;;;;;;;15.50;14.10;;;-4.70;1.00;;;;;;5024513;28;20174;-55
2024/01/08 05:03:09;;;;;;;15.03;13.73;;;-4.70;1.00;;;;;;5025550;28;20233;-55
2024/01/08 05:05:35;;;;;;;15.87;14.37;;;-4.70;1.00;;;;;;5034748;28;20190;-54
2024/01/08 05:08:01;;;;;;;15.87;14.37;;;-4.70;1.00;;;;;;5005479;28;20426;-55
2024/01/08 05:10:26;;;;;;;15.83;14.53;;;-4.70;1.00;;;;;;5031564;28;20201;-53
2024/01/08 05:12:52;;;;;;;16.47;14.97;;;-4.60;1.00;;;;;;5025877;28;20185;-54
2024/01/08 05:15:17;;;;;;;16.90;15.30;;;-4.60;1.00;;;;;;5011785;28;20672;-53
2024/01/08 05:17:54;;;;;;;16.70;15.30;;;-4.60;1.00;;;;;;5028029;28;20193;-39
2024/01/08 05:23:37;;;;;;;17.85;14.88;;;-4.70;1.00;;;;;;5020199;28;20724;-36
2024/01/08 05:26:03;;;;;;;16.63;15.17;;;-4.70;1.00;;;;;;5038521;28;20277;-36
2024/01/08 05:28:29;;;;;;;17.43;15.90;;;-4.70;1.00;;;;;;5013002;28;20190;-36
2024/01/08 05:30:55;;;;;;;15.60;14.30;;;-4.70;1.00;;;;;;5025191;28;20197;-39
2024/01/08 05:33:22;;;;;;;15.95;14.40;;;-4.70;1.00;;;;;;5033700;28;20591;-35
2024/01/08 05:35:47;;;;;;;14.82;13.57;;;-4.70;1.00;;;;;;5035948;28;20230;-36
2024/01/08 05:38:13;;;;;;;14.33;13.07;;;-4.70;1.00;;;;;;5030377;28;20185;-37
2024/01/08 05:40:39;;;;;;;14.60;13.20;;;-4.70;1.00;;;;;;5033177;28;20430;-36
2024/01/08 05:43:05;;;;;;;14.80;13.47;;;-4.70;1.00;;;;;;5027094;28;20182;-37
2024/01/08 05:45:31;;;;;;;14.60;13.52;;;-4.70;1.00;;;;;;5039992;28;20436;-37
2024/01/08 05:47:57;;;;;;;16.13;14.48;;;-4.80;1.00;;;;;;5034097;28;20218;-36
2024/01/08 05:50:27;;;;;;;15.23;14.20;;;-4.70;1.00;;;;;;5038989;28;20221;-36
2024/01/08 05:52:54;;;;;;;15.60;14.10;;;-4.70;1.00;;;;;;5032562;28;20743;-38
2024/01/08 05:55:20;;;;;;;15.15;13.85;;;-4.70;1.00;;;;;;5028165;28;20194;-37
2024/01/08 05:57:46;;;;;;;17.65;15.85;;;-4.80;1.00;;;;;;5037157;28;20182;-37
2024/01/08 06:00:12;;;;;;;16.63;15.23;;;-4.90;1.00;;;;;;5028623;28;20220;-37
2024/01/08 06:02:37;;;;;;;16.55;14.20;;;-4.90;1.00;;;;;;5021476;28;20190;-37
2024/01/08 06:05:03;;;;;;;15.13;13.83;;;-4.90;1.00;;;;;;5025490;28;20534;-37
2024/01/08 06:07:29;;;;;;;16.00;14.37;;;-4.90;1.00;;;;;;5039181;28;20541;-37
2024/01/08 06:09:55;;;;;;;16.17;14.67;;;-4.90;21.20;;;;;;5033493;28;20416;-37
2024/01/08 06:12:20;;;;;;;16.23;14.83;;;-4.90;45.20;;;;;;5008176;28;20186;-37
2024/01/08 06:14:46;;;;;;;16.70;15.20;;;-4.90;4.60;;;;;;5024619;28;20186;-38
2024/01/08 06:17:11;;;;;;;17.30;15.60;;;-4.90;14.60;;;;;;5034224;28;20213;-37
2024/01/08 06:19:37;;;;;;;16.00;14.50;;;-4.90;1.50;;;;;;5030712;28;20234;-38
2024/01/08 06:22:03;;;;;;;15.43;14.13;;;-4.90;1.00;;;;;;5028595;28;20281;-36
2024/01/08 06:24:29;;;;;;;15.43;14.13;;;-5.00;1.00;;;;;;5034515;28;20182;-37
2024/01/08 06:26:54;;;;;;;15.53;14.03;;;-5.00;1.00;;;;;;5039133;28;20521;-37
2024/01/08 06:29:20;;;;;;;17.03;14.80;;;-5.10;1.00;;;;;;5037014;28;20186;-37
2024/01/08 06:31:45;;;;;;;16.87;15.20;;;-5.10;1.00;;;;;;5032623;28;20485;-38
2024/01/08 06:34:11;;;;;;;16.67;15.17;;;-5.20;1.00;;;;;;5038547;28;20187;-38
2024/01/08 06:36:38;;;;;;;15.43;13.93;;;-5.20;1.00;;;;;;5040023;28;20267;-37
2024/01/08 06:39:04;;;;;;;15.70;14.40;;;-5.20;1.00;;;;;;5039974;28;20660;-37
2024/01/08 06:41:30;;;;;;;17.25;15.65;;;-5.20;1.00;;;;;;5038923;28;20268;-37
2024/01/08 06:43:56;;;;;;;16.90;15.40;;;-5.20;1.00;;;;;;5027591;28;20188;-37
2024/01/08 06:46:22;;;;;;;15.00;13.73;;;-5.20;1.00;;;;;;5038050;28;20239;-42
2024/01/08 06:48:47;;;;;;;17.67;15.90;;;-5.30;1.00;;;;;;5032205;28;20643;-37
2024/01/08 06:51:13;;;;;;;15.33;14.13;;;-5.30;1.00;;;;;;5036662;28;20528;-37
2024/01/08 06:53:38;;;;;;;16.53;13.47;;;-5.40;1.00;;;;;;5031271;28;20190;-37
2024/01/08 06:56:05;;;;;;;15.27;13.87;;;-5.40;1.00;;;;;;5028380;28;20623;-37
2024/01/08 06:58:31;;;;;;;15.80;13.77;;;-5.40;1.00;;;;;;5040640;28;20217;-38
2024/01/08 07:00:56;;;;;;;15.83;14.40;;;-5.40;1.00;;;;;;5028553;28;20264;-37
2024/01/08 07:03:22;;;;;;;14.83;13.53;;;-5.40;1.00;;;;;;5018403;28;20178;-39
2024/01/08 07:05:48;;;;;;;15.67;14.10;;;-5.50;1.00;;;;;;5010591;28;20186;-38
2024/01/08 07:08:13;;;;;;;13.77;12.63;;;-5.50;1.00;;;;;;5031260;28;20412;-37
2024/01/08 07:10:39;;;;;;;13.87;12.67;;;-5.40;1.00;;;;;;5033450;28;20300;-37
2024/01/08 07:13:04;;;;;;;14.40;13.10;;;-5.50;1.00;;;;;;5029270;28;20185;-39
2024/01/08 07:15:40;;;;;;;13.60;12.63;;;-5.60;1.00;;;;;;5025414;28;20202;-37
2024/01/08 07:18:10;;;;;;;14.82;13.63;;;-5.70;1.00;;;;;;5032949;28;20177;-38
2024/01/08 07:20:40;;;;;;;14.35;13.20;;;-5.70;1.00;;;;;;5010912;28;20242;-36
2024/01/08 07:23:08;;;;;;;14.35;13.18;;;-5.80;1.00;;;;;;5006491;28;20257;-37
2024/01/08 07:25:40;;;;;;;14.00;12.75;;;-5.70;1.00;;;;;;5000380;28;20187;-38
2024/01/08 07:28:08;;;;;;;15.63;14.23;;;-5.70;1.00;;;;;;5006124;28;20661;-38
2024/01/08 07:30:34;;;;;;;16.70;15.02;;;-5.60;1.00;;;;;;5002633;28;20187;-37
2024/01/08 07:33:00;;;;;;;16.02;14.80;;;-5.60;1.00;;;;;;5001728;28;20763;-37
2024/01/08 07:35:26;;;;;;;16.23;14.90;;;-5.60;1.00;;;;;;5016175;28;20198;-37
2024/01/08 07:37:55;;;;;;;18.50;16.50;;;-5.60;1.00;;;;;;5000870;28;20649;-37
2024/01/08 07:40:30;;;;;;;14.70;13.38;;;-5.70;1.00;;;;;;5005630;28;20195;-37
2024/01/08 07:42:56;;;;;;;15.45;13.95;;;-5.60;1.00;;;;;;5010607;28;20205;-39
2024/01/08 07:45:23;;;;;;;16.65;15.07;;;-5.60;1.00;;;;;;4998565;28;20179;-37
2024/01/08 07:47:49;;;;;;;17.92;16.42;;;-5.60;1.00;;;;;;5002130;28;20194;-37
2024/01/08 07:50:15;;;;;;;15.60;14.40;;;-5.50;1.00;;;;;;5018618;28;20186;-37
2024/01/08 07:52:41;;;;;;;18.77;16.83;;;-5.50;1.00;;;;;;5006378;28;20178;-37
2024/01/08 07:55:08;;;;;;;16.17;14.70;;;-5.50;1.00;;;;;;4989923;28;20198;-37
2024/01/08 07:57:34;;;;;;;16.83;15.07;;;-5.60;1.00;;;;;;5027639;28;20568;-37
2024/01/08 07:59:59;;;;;;;21.38;16.15;;;-5.50;1.00;;;;;;5005793;28;20174;-37
2024/01/08 08:02:25;;;;;;;15.63;14.33;;;-5.50;1.00;;;;;;5002723;28;20191;-38
2024/01/08 08:04:54;;;;;;;18.00;16.27;;;-5.50;1.00;;;;;;5000808;28;20209;-37
2024/01/08 08:07:20;;;;;;;18.10;16.05;;;-5.50;1.00;;;;;;5003659;28;20658;-37
2024/01/08 08:09:46;;;;;;;17.40;15.47;;;-5.50;1.00;;;;;;5008000;28;20487;-38
2024/01/08 08:12:11;;;;;;;17.57;15.90;;;-5.50;1.00;;;;;;5006917;28;20427;-37
2024/01/08 08:14:37;;;;;;;16.77;15.10;;;-5.40;1.00;;;;;;5000200;28;20413;-38
2024/01/08 08:17:03;;;;;;;17.37;15.67;;;-5.40;1.00;;;;;;5010005;28;20194;-37
2024/01/08 08:19:29;;;;;;;17.85;15.95;;;-5.40;1.00;;;;;;4992788;28;20321;-37
2024/01/08 08:21:55;;;;;;;17.13;15.33;;;-5.40;1.00;;;;;;5018063;28;20194;-37
2024/01/08 08:24:21;;;;;;;16.75;15.25;;;-5.30;1.00;;;;;;5018975;28;20202;-37
2024/01/08 08:26:46;;;;;;;17.20;15.50;;;-5.30;1.00;;;;;;5018964;28;20190;-38
2024/01/08 08:29:12;;;;;;;16.70;15.00;;;-5.30;1.00;;;;;;5016623;28;20174;-37
2024/01/08 08:31:38;;;;;;;17.00;15.20;;;-5.30;1.00;;;;;;5017967;28;20256;-37
2024/01/08 08:34:04;;;;;;;17.93;15.90;;;-5.20;1.00;;;;;;5019589;28;20187;-37
2024/01/08 08:36:29;;;;;;;16.80;15.20;;;-5.30;1.00;;;;;;5018786;28;20613;-38
2024/01/08 08:38:56;;;;;;;18.87;17.20;;;-5.30;1.00;;;;;;5019300;28;20461;-37
2024/01/08 08:41:22;;;;;;;18.08;16.20;;;-5.30;1.00;;;;;;5018916;28;20175;-37
2024/01/08 08:43:48;;;;;;;17.33;15.93;;;-5.30;1.00;;;;;;5018764;28;20517;-56
2024/01/08 08:46:15;;;;;;;17.90;16.30;;;-5.30;1.00;;;;;;5018394;28;20183;-57
2024/01/08 08:48:40;;;;;;;18.27;16.48;;;-5.20;1.00;;;;;;5019700;28;20565;-50
2024/01/08 08:51:06;;;;;;;17.70;16.13;;;-5.30;1.00;;;;;;5018863;28;20183;-49
2024/01/08 08:53:32;;;;;;;20.73;17.20;;;-5.20;1.00;;;;;;5019208;28;20205;-51
2024/01/08 08:55:57;;;;;;;20.80;17.20;;;-5.30;1.00;;;;;;5019058;28;20659;-56
2024/01/08 08:58:23;;;;;;;21.20;16.87;;;-5.20;1.00;;;;;;5017955;28;20218;-51
2024/01/08 09:00:50;;;;;;;22.23;16.63;;;-5.20;1.00;;;;;;5019118;28;20298;-53
2024/01/08 09:03:15;;;;;;;19.48;17.42;;;-5.10;1.00;;;;;;5018842;28;20189;-55
2024/01/08 09:05:41;;;;;;;20.90;18.87;;;-5.10;1.00;;;;;;5019320;28;20191;-56
2024/01/08 09:08:07;;;;;;;17.55;15.98;;;-5.10;1.00;;;;;;5018901;28;20430;-55
2024/01/08 09:10:33;;;;;;;18.37;16.57;;;-5.00;1.00;;;;;;5022235;28;20655;-51
2024/01/08 09:12:59;;;;;;;21.88;19.88;;;-5.00;1.00;;;;;;5023031;28;20953;-55
2024/01/08 09:15:24;;;;;;;18.03;16.23;;;-5.00;1.00;;;;;;5023020;28;20213;-55
2024/01/08 09:17:50;;;;;;;17.37;15.57;;;-5.00;1.00;;;;;;5023330;28;20190;-42
2024/01/08 09:20:16;;;;;;;18.30;16.47;;;-5.00;1.00;;;;;;5022951;28;20229;-37
2024/01/08 09:22:43;;;;;;;17.17;15.57;;;-4.90;1.00;;;;;;5020511;28;20245;-56
2024/01/08 09:25:09;;;;;;;18.52;15.65;;;-4.80;1.00;;;;;;5022997;28;20286;-55
2024/01/08 09:27:37;;;;;;;16.13;14.77;;;-4.80;1.00;;;;;;5022291;28;20182;-50
2024/01/08 09:30:02;;;;;;;17.55;15.85;;;-4.80;1.00;;;;;;5022300;28;20182;-50
2024/01/08 09:32:28;;;;;;;16.87;15.07;;;-4.80;1.00;;;;;;5022643;28;20182;-54
2024/01/08 09:34:54;;;;;;;15.60;14.13;;;-4.80;1.00;;;;;;5022522;28;20429;-48
2024/01/08 09:37:20;;;;;;;18.47;16.77;;;-4.80;1.00;;;;;;5022612;28;20361;-47
2024/01/08 09:39:46;;;;;;;15.35;14.05;;;-4.80;1.00;;;;;;5022772;28;20269;-51
2024/01/08 09:42:13;;;;;;;17.57;15.93;;;-4.80;1.00;;;;;;5022006;28;20224;-42
2024/01/08 09:44:45;;;;;;;15.82;14.30;;;-4.70;1.00;;;;;;5022163;28;20425;-54
2024/01/08 09:47:12;;;;;;;17.60;16.00;;;-4.60;1.00;;;;;;5021858;28;20182;-51
2024/01/08 09:49:39;;;;;;;17.83;16.02;;;-4.60;1.00;;;;;;5022322;28;20594;-55
2024/01/08 09:52:08;;;;;;;17.25;15.73;;;-4.50;1.00;;;;;;5021245;28;20186;-48
2024/01/08 09:54:36;;;;;;;21.08;17.00;;;-4.40;1.00;;;;;;5021365;28;20178;-44
2024/01/08 09:57:03;;;;;;;16.70;15.30;;;-4.40;1.00;;;;;;5021997;28;20544;-55
2024/01/08 09:59:31;;;;;;;17.08;15.60;;;-4.40;1.00;;;;;;5019436;28;20298;-54
2024/01/08 10:01:56;;;;;;;17.20;15.68;;;-4.30;1.00;;;;;;5022214;28;20182;-37
2024/01/08 10:04:25;;;;;;;18.03;16.40;;;-4.30;1.00;;;;;;5022388;28;20174;-36
2024/01/08 10:07:06;;;;;;;18.52;16.63;;;-4.40;1.00;;;;;;5021672;28;20174;-37
2024/01/08 10:09:32;;;;;;;18.70;16.83;;;-4.30;1.00;;;;;;5021860;28;20907;-37
2024/01/08 10:11:58;;;;;;;18.50;16.57;;;-4.30;1.00;;;;;;5021421;28;20733;-36
2024/01/08 10:14:25;;;;;;;20.10;16.52;;;-4.30;1.00;;;;;;5021785;28;20494;-37
2024/01/08 10:16:51;;;;;;;18.83;16.83;;;-4.10;1.00;;;;;;5021968;28;20213;-38
2024/01/08 10:19:18;;;;;;;18.52;16.75;;;-3.90;1.00;;;;;;5021442;28;21046;-37
2024/01/08 10:21:45;;;;;;;19.48;17.58;;;-3.80;1.00;;;;;;5021003;28;20631;-37
2024/01/08 10:24:11;;;;;;;18.17;16.33;;;-3.60;1.00;;;;;;5019196;28;20622;-37
2024/01/08 10:26:41;;;;;;;18.13;16.52;;;-3.50;1.00;;;;;;5020643;28;20197;-38
2024/01/08 10:29:13;;;;;;;17.52;15.80;;;-3.10;1.00;;;;;;5021378;28;20521;-36
2024/01/08 10:31:39;;;;;;;18.88;16.98;;;-2.70;1.00;;;;;;5021483;28;20603;-36
2024/01/08 10:34:05;;;;;;;19.80;18.00;;;-2.30;1.00;;;;;;5021385;28;20285;-37
2024/01/08 10:36:32;;;;;;;18.20;16.67;;;-1.80;1.00;;;;;;5036332;28;20294;-39
2024/01/08 10:39:02;;;;;;;21.80;18.92;;;-1.10;1.00;;;;;;5021048;28;20197;-37
2024/01/08 10:41:27;;;;;;;20.38;18.42;;;-0.30;1.00;;;;;;5020425;28;20182;-37
2024/01/08 10:43:53;;;;;;;19.30;17.60;;;0.30;1.00;;;;;;5021066;28;20178;-37
2024/01/08 10:46:22;;;;;;;20.20;18.40;;;0.90;1.00;;;;;;5021204;28;20190;-48
2024/01/08 10:48:50;;;;;;;19.27;17.65;;;1.30;99.90;;;;;;5020369;28;20424;-52
2024/01/08 10:51:17;;;;;;;19.58;17.70;;;1.30;99.90;;;;;;5020962;28;20194;-49
2024/01/08 10:53:44;;;;;;;20.05;18.00;;;0.80;99.90;;;;;;5019543;28;20460;-55
2024/01/08 10:56:13;;;;;;;18.98;17.27;;;0.10;99.90;;;;;;5020870;28;20202;-56
2024/01/08 10:58:45;;;;;;;18.25;16.52;;;-0.50;99.90;;;;;;5021119;28;20179;-56
2024/01/08 11:01:11;;;;;;;20.02;17.95;;;-1.00;99.90;;;;;;5020752;28;20183;-49
2024/01/08 11:03:37;;;;;;;19.63;17.75;;;-0.80;99.90;;;;;;5021127;28;20539;-57
2024/01/08 11:06:04;;;;;;;20.70;17.77;;;-0.40;99.90;;;;;;5020911;28;20417;-56
2024/01/08 11:08:32;;;;;;;18.83;17.02;;;0.00;99.90;;;;;;5020384;28;20536;-58
2024/01/08 11:11:18;;;;;;;19.95;18.05;;;0.40;99.90;;;;;;5020888;28;20676;-61
2024/01/08 11:13:44;;;;;;;20.27;18.25;;;1.00;99.90;;;;;;5020050;28;20840;-48
2024/01/08 11:16:15;;;;;;;19.63;17.67;;;1.70;99.90;;;;;;5020570;28;20210;-57
2024/01/08 11:18:41;;;;;;;19.35;17.63;;;1.90;99.90;;;;;;5020019;28;20214;-49
2024/01/08 11:21:06;;;;;;;21.00;19.20;;;2.10;99.90;;;;;;5020802;28;20191;-55
2024/01/08 11:23:33;;;;;;;21.30;19.20;;;2.50;99.90;;;;;;5018700;28;20195;-49
2024/01/08 11:26:04;;;;;;;20.33;18.27;;;2.80;99.90;;;;;;5020539;28;20597;-50
2024/01/08 11:28:32;;;;;;;19.00;17.33;;;3.00;99.90;;;;;;5020475;28;20660;-52
2024/01/08 11:31:22;;;;;;;21.58;19.55;;;2.90;99.90;;;;;;5020267;28;20371;-58
2024/01/08 11:34:19;;;;;;;21.50;19.50;;;2.90;99.90;;;;;;5019290;28;20261;-57
2024/01/08 11:36:49;;;;;;;20.23;18.42;;;2.90;99.90;;;;;;5019542;28;20241;-56
2024/01/08 11:39:19;;;;;;;21.67;19.65;;;3.00;99.90;;;;;;5020113;28;20177;-57
2024/01/08 11:41:48;;;;;;;21.23;19.08;;;3.00;99.90;;;;;;5020213;28;20185;-44
2024/01/08 11:44:14;;;;;;;20.98;19.05;;;3.10;99.90;;;;;;5019790;28;20190;-55
2024/01/08 11:46:43;;;;;;;22.30;20.00;;;3.30;99.90;;;;;;5017845;28;20193;-54
2024/01/08 11:49:09;;;;;;;21.88;19.73;;;3.50;99.90;;;;;;5019916;28;20432;-57
2024/01/08 11:51:40;;;;;;;21.90;19.60;;;3.50;99.90;;;;;;5019866;28;20183;-56
2024/01/08 11:54:08;;;;;;;21.13;19.10;;;3.40;99.90;;;;;;5020078;28;20179;-51
2024/01/08 11:56:34;;;;;;;22.20;20.10;;;3.50;99.90;;;;;;5019745;28;20214;-56
2024/01/08 11:59:00;;;;;;;22.40;20.30;;;3.60;99.90;;;;;;5017442;28;20182;-55
2024/01/08 12:01:27;;;;;;;22.30;20.00;;;3.30;99.90;;;;;;5018720;28;20191;-49
2024/01/08 12:03:59;;;;;;;20.42;18.63;;;3.40;99.90;;;;;;5019715;28;20384;-48
2024/01/08 12:06:28;;;;;;;21.75;19.45;;;3.50;99.90;;;;;;5019823;28;20198;-51
2024/01/08 12:08:54;;;;;;;20.98;18.95;;;3.50;99.90;;;;;;5019695;28;20174;-57
2024/01/08 12:11:24;;;;;;;22.83;20.50;;;3.60;99.90;;;;;;5019546;28;20245;-53
2024/01/08 12:13:51;;;;;;;23.52;21.15;;;3.90;99.90;;;;;;5019437;28;20541;-54
2024/01/08 12:16:17;;;;;;;23.60;21.17;;;3.90;99.90;;;;;;5019313;28;20631;-55
2024/01/08 12:18:43;;;;;;;22.27;19.97;;;4.00;99.90;;;;;;5038998;28;20233;-52
2024/01/08 12:21:09;;;;;;;21.53;19.23;;;3.90;99.90;;;;;;5035863;28;20181;-37
2024/01/08 12:23:36;;;;;;;23.50;21.20;;;3.80;99.90;;;;;;5005370;28;20796;-36
2024/01/08 12:26:03;;;;;;;22.02;19.88;;;3.90;99.90;;;;;;5031346;28;20432;-37
2024/01/08 12:28:30;;;;;;;22.48;20.25;;;3.80;99.90;;;;;;5033259;28;20288;-37
2024/01/08 12:30:58;;;;;;;23.25;20.98;;;3.60;99.90;;;;;;5033437;28;20189;-39
2024/01/08 12:33:24;;;;;;;21.45;19.35;;;3.30;99.90;;;;;;5022411;28;20521;-37
2024/01/08 12:35:54;;;;;;;22.47;20.20;;;3.40;99.90;;;;;;5018939;28;20225;-37